Time;durP1;ratioP1;P1;durP2;ratioP2;P2;SDS_P1;SDS_P2;PMS_P1;PMS_P2;Temp;Humidity;BMP_temperature;BMP_pressure;BME280_temperature;BME280_humidity;BME280_pressure;Samples;Min_cycle;Max_cycle;Signal;HPM_P1;HPM_P2
2022/05/01 00:00:59;;;;;;;35.88;24.63;;;;;;;;;;5085572;28;20049;-60
2022/05/01 00:03:31;;;;;;;37.45;24.83;;;;;;;;;;5086985;28;20500;-60
2022/05/01 00:06:07;;;;;;;41.42;26.90;;;;;;;;;;5087275;28;20066;-60
2022/05/01 00:08:34;;;;;;;42.13;26.33;;;;;;;;;;5085952;28;20044;-60
2022/05/01 00:11:00;;;;;;;37.25;25.65;;;;;;;;;;5085972;28;20036;-60
2022/05/01 00:13:27;;;;;;;36.55;25.20;;;;;;;;;;5086750;28;20041;-61
2022/05/01 00:15:53;;;;;;;36.75;24.60;;;;;;;;;;5085466;28;20044;-61
2022/05/01 00:18:19;;;;;;;41.05;26.95;;;;;;;;;;5067403;28;20500;-60
2022/05/01 00:20:46;;;;;;;41.88;26.80;;;;;;;;;;5067612;28;20045;-61
2022/05/01 00:23:12;;;;;;;46.95;29.15;;;;;;;;;;5085470;28;20044;-60
2022/05/01 00:25:42;;;;;;;40.90;25.90;;;;;;;;;;5085877;28;20048;-62
2022/05/01 00:28:14;;;;;;;39.33;27.13;;;;;;;;;;5087156;28;20052;-61
2022/05/01 00:30:41;;;;;;;40.47;27.02;;;;;;;;;;5086888;28;20528;-62
2022/05/01 00:38:38;;;;;;;52.08;29.17;;;;;;;;;;5085568;28;20068;-60
2022/05/01 00:41:07;;;;;;;48.80;30.80;;;;;;;;;;5086649;28;20456;-60
2022/05/01 00:43:33;;;;;;;47.95;30.25;;;;;;;;;;5086914;28;20044;-60
2022/05/01 00:45:59;;;;;;;55.95;34.53;;;;;;;;;;5086819;28;20051;-60
2022/05/01 00:48:25;;;;;;;54.88;33.00;;;;;;;;;;5085799;28;20048;-61
2022/05/01 00:50:52;;;;;;;53.38;34.05;;;;;;;;;;5086690;28;20056;-61
2022/05/01 00:53:18;;;;;;;51.25;33.38;;;;;;;;;;5086733;28;20068;-61
2022/05/01 00:55:45;;;;;;;69.10;38.22;;;;;;;;;;5086682;28;20091;-61
2022/05/01 00:58:11;;;;;;;55.00;34.17;;;;;;;;;;5086733;28;20399;-60
2022/05/01 01:00:37;;;;;;;58.00;32.38;;;;;;;;;;5086208;28;20089;-60
2022/05/01 01:03:03;;;;;;;49.67;30.85;;;;;;;;;;5086507;28;20040;-60
2022/05/01 01:05:29;;;;;;;52.17;33.05;;;;;;;;;;5086567;28;20076;-60
2022/05/01 01:08:00;;;;;;;67.88;36.85;;;;;;;;;;5086360;28;20096;-60
2022/05/01 01:10:26;;;;;;;55.25;34.25;;;;;;;;;;5086392;28;20048;-61
2022/05/01 01:12:56;;;;;;;62.60;36.47;;;;;;;;;;5086278;28;20082;-60
2022/05/01 01:15:28;;;;;;;57.00;35.58;;;;;;;;;;5086077;28;20059;-60
2022/05/01 01:17:54;;;;;;;50.85;31.85;;;;;;;;;;5084959;28;20084;-60
2022/05/01 01:20:25;;;;;;;50.97;31.90;;;;;;;;;;5086041;28;20048;-60
2022/05/01 01:22:52;;;;;;;52.00;30.95;;;;;;;;;;5086050;28;20052;-60
2022/05/01 01:25:20;;;;;;;52.35;31.63;;;;;;;;;;5085758;28;20083;-60
2022/05/01 01:27:46;;;;;;;50.70;31.05;;;;;;;;;;5085646;28;20062;-61
2022/05/01 01:32:57;;;;;;;52.72;31.45;;;;;;;;;;5084146;28;20079;-61
2022/05/01 01:35:24;;;;;;;44.47;27.02;;;;;;;;;;5085598;28;20048;-60
2022/05/01 01:37:51;;;;;;;51.13;29.88;;;;;;;;;;5084407;28;20476;-61
2022/05/01 01:40:30;;;;;;;55.05;31.35;;;;;;;;;;5085182;28;20067;-60
2022/05/01 01:42:57;;;;;;;51.55;30.50;;;;;;;;;;5085713;28;20078;-60
2022/05/01 01:45:26;;;;;;;58.85;33.17;;;;;;;;;;5085081;28;20055;-60
2022/05/01 01:47:52;;;;;;;62.45;34.38;;;;;;;;;;5085215;28;20074;-61
2022/05/01 01:50:18;;;;;;;57.00;33.50;;;;;;;;;;5085596;28;20047;-60
2022/05/01 01:52:46;;;;;;;62.83;33.05;;;;;;;;;;5084990;28;20044;-60
2022/05/01 01:55:14;;;;;;;51.25;28.88;;;;;;;;;;5085351;28;20127;-60
2022/05/01 01:57:41;;;;;;;46.63;28.52;;;;;;;;;;5085406;28;20078;-60
2022/05/01 02:00:07;;;;;;;45.53;27.33;;;;;;;;;;5084887;28;20105;-60
2022/05/01 02:02:33;;;;;;;40.03;26.17;;;;;;;;;;5085037;28;20397;-60
2022/05/01 02:04:59;;;;;;;41.00;25.05;;;;;;;;;;5085083;28;20044;-60
2022/05/01 02:07:28;;;;;;;37.55;24.92;;;;;;;;;;5085145;28;20041;-60
2022/05/01 02:09:54;;;;;;;41.03;23.60;;;;;;;;;;5084828;28;20041;-60
2022/05/01 02:12:20;;;;;;;36.95;23.30;;;;;;;;;;5084685;28;20071;-59
2022/05/01 02:14:47;;;;;;;37.55;22.58;;;;;;;;;;5083701;28;20049;-61
2022/05/01 02:17:13;;;;;;;35.33;22.95;;;;;;;;;;5085081;28;20104;-60
2022/05/01 02:19:39;;;;;;;35.40;21.85;;;;;;;;;;5084999;28;20044;-61
2022/05/01 02:22:05;;;;;;;31.00;21.33;;;;;;;;;;5084854;28;20044;-61
2022/05/01 02:24:31;;;;;;;34.88;19.92;;;;;;;;;;5084771;28;20048;-61
2022/05/01 02:26:57;;;;;;;31.77;20.98;;;;;;;;;;5084840;28;20052;-60
2022/05/01 02:29:23;;;;;;;35.15;22.33;;;;;;;;;;5084675;28;20059;-60
2022/05/01 02:31:53;;;;;;;57.17;32.00;;;;;;;;;;5084727;28;20049;-61
2022/05/01 02:34:20;;;;;;;41.03;24.67;;;;;;;;;;5084791;28;20056;-61
2022/05/01 02:36:46;;;;;;;51.33;29.52;;;;;;;;;;5084597;28;20040;-60
2022/05/01 02:39:13;;;;;;;37.67;23.75;;;;;;;;;;5083558;28;20048;-61
2022/05/01 02:41:39;;;;;;;44.53;25.23;;;;;;;;;;5084668;28;20076;-60
2022/05/01 02:44:06;;;;;;;35.28;24.02;;;;;;;;;;5083222;28;20060;-60
2022/05/01 02:46:33;;;;;;;43.45;26.20;;;;;;;;;;5084485;28;20052;-60
2022/05/01 02:48:59;;;;;;;55.10;29.48;;;;;;;;;;5084575;28;20044;-60
2022/05/01 02:51:25;;;;;;;64.47;33.42;;;;;;;;;;5084503;28;20075;-61
2022/05/01 02:53:51;;;;;;;73.75;36.67;;;;;;;;;;5084498;28;20066;-61
2022/05/01 02:56:17;;;;;;;53.13;29.88;;;;;;;;;;5084536;28;20041;-60
2022/05/01 02:58:43;;;;;;;62.03;32.00;;;;;;;;;;5084578;28;20076;-62
2022/05/01 03:01:09;;;;;;;59.88;31.50;;;;;;;;;;5084392;28;20049;-60
2022/05/01 03:03:36;;;;;;;49.17;29.75;;;;;;;;;;5084345;28;20047;-61
2022/05/01 03:06:02;;;;;;;47.53;29.25;;;;;;;;;;5084305;28;20044;-61
2022/05/01 03:08:28;;;;;;;57.63;31.95;;;;;;;;;;5084483;28;20048;-61
2022/05/01 03:10:54;;;;;;;37.78;23.95;;;;;;;;;;5083215;28;20078;-61
2022/05/01 03:13:20;;;;;;;45.92;26.42;;;;;;;;;;5084501;28;20041;-60
2022/05/01 03:15:47;;;;;;;49.60;28.00;;;;;;;;;;5082938;28;20127;-60
2022/05/01 03:23:43;;;;;;;59.83;33.10;;;;;;;;;;5086371;28;20074;-61
2022/05/01 03:26:09;;;;;;;65.10;33.47;;;;;;;;;;5086881;28;20048;-61
2022/05/01 03:28:35;;;;;;;68.18;34.58;;;;;;;;;;5088077;28;20048;-62
2022/05/01 03:31:03;;;;;;;70.47;37.33;;;;;;;;;;5087852;28;20048;-60
2022/05/01 03:33:31;;;;;;;73.65;37.53;;;;;;;;;;5087892;28;20051;-61
2022/05/01 03:35:57;;;;;;;68.60;39.38;;;;;;;;;;5088105;28;20052;-61
2022/05/01 03:38:23;;;;;;;74.95;39.33;;;;;;;;;;5087821;28;20052;-61
2022/05/01 03:40:49;;;;;;;89.05;43.20;;;;;;;;;;5087624;28;20052;-61
2022/05/01 03:43:16;;;;;;;85.35;41.90;;;;;;;;;;5087772;28;20052;-60
2022/05/01 03:45:42;;;;;;;100.40;43.92;;;;;;;;;;5086261;28;20052;-60
2022/05/01 03:48:08;;;;;;;93.82;43.78;;;;;;;;;;5087791;28;20070;-60
2022/05/01 03:50:35;;;;;;;84.65;42.88;;;;;;;;;;5087656;28;20448;-60
2022/05/01 03:53:04;;;;;;;94.38;45.80;;;;;;;;;;5087568;28;20058;-60
2022/05/01 03:55:31;;;;;;;75.38;41.33;;;;;;;;;;5087511;28;20071;-60
2022/05/01 03:57:58;;;;;;;83.72;44.08;;;;;;;;;;5087369;28;20044;-60
2022/05/01 04:00:25;;;;;;;106.00;47.70;;;;;;;;;;5086098;28;20105;-60
2022/05/01 04:02:52;;;;;;;113.70;51.92;;;;;;;;;;5087229;28;20206;-60
2022/05/01 04:05:18;;;;;;;97.60;48.40;;;;;;;;;;5087368;28;20048;-62
2022/05/01 04:07:45;;;;;;;115.47;51.88;;;;;;;;;;5087455;28;20074;-60
2022/05/01 04:10:11;;;;;;;97.07;46.70;;;;;;;;;;5085968;28;20052;-61
2022/05/01 04:12:38;;;;;;;114.43;51.75;;;;;;;;;;5087355;28;20124;-60
2022/05/01 04:15:07;;;;;;;116.53;49.55;;;;;;;;;;5086898;28;20045;-60
2022/05/01 04:17:40;;;;;;;90.63;45.08;;;;;;;;;;5087211;28;20119;-60
2022/05/01 04:20:08;;;;;;;89.05;44.95;;;;;;;;;;5085793;28;20102;-60
2022/05/01 04:22:44;;;;;;;83.90;43.22;;;;;;;;;;5087037;28;20048;-60
2022/05/01 04:25:20;;;;;;;78.38;43.00;;;;;;;;;;5086990;28;20099;-60
2022/05/01 04:27:48;;;;;;;98.82;46.63;;;;;;;;;;5086965;28;20070;-60
2022/05/01 04:30:15;;;;;;;91.50;47.10;;;;;;;;;;5086984;28;20048;-61
2022/05/01 04:32:49;;;;;;;85.55;43.38;;;;;;;;;;5086858;28;20125;-60
2022/05/01 04:35:19;;;;;;;102.70;47.60;;;;;;;;;;5085316;28;20049;-61
2022/05/01 04:37:46;;;;;;;92.20;43.72;;;;;;;;;;5086938;28;20085;-61
2022/05/01 04:40:14;;;;;;;85.55;42.80;;;;;;;;;;5078449;28;20452;-61
2022/05/01 04:42:41;;;;;;;82.38;41.00;;;;;;;;;;5085361;28;20056;-61
2022/05/01 04:45:07;;;;;;;87.97;43.47;;;;;;;;;;5085160;28;20174;-61
2022/05/01 04:47:34;;;;;;;87.22;39.33;;;;;;;;;;5084263;28;20197;-60
2022/05/01 04:50:00;;;;;;;82.40;40.97;;;;;;;;;;5086894;28;20055;-61
2022/05/01 04:52:26;;;;;;;67.55;38.35;;;;;;;;;;5084258;28;20086;-61
2022/05/01 04:54:52;;;;;;;53.85;33.67;;;;;;;;;;5092589;28;20080;-61
2022/05/01 04:57:18;;;;;;;58.88;33.53;;;;;;;;;;5087262;28;20143;-61
2022/05/01 04:59:44;;;;;;;71.38;36.10;;;;;;;;;;5084415;28;20049;-61
2022/05/01 05:02:11;;;;;;;52.38;32.85;;;;;;;;;;5083686;28;20094;-61
2022/05/01 05:04:37;;;;;;;46.50;28.90;;;;;;;;;;5084329;28;20106;-60
2022/05/01 05:07:03;;;;;;;42.97;26.15;;;;;;;;;;5080735;28;20043;-60
2022/05/01 05:12:14;;;;;;;40.85;26.50;;;;;;;;;;5084441;28;20052;-60
2022/05/01 05:14:41;;;;;;;42.22;28.02;;;;;;;;;;5084603;28;20040;-60
2022/05/01 05:17:09;;;;;;;42.60;27.15;;;;;;;;;;5082087;28;20052;-61
2022/05/01 05:19:35;;;;;;;51.75;30.15;;;;;;;;;;5080902;28;20653;-61
2022/05/01 05:22:01;;;;;;;34.60;23.67;;;;;;;;;;5078728;28;20068;-61
2022/05/01 05:24:28;;;;;;;31.35;22.02;;;;;;;;;;5077900;28;20051;-61
2022/05/01 05:26:54;;;;;;;29.90;21.00;;;;;;;;;;5080650;28;20071;-61
2022/05/01 05:29:20;;;;;;;30.35;18.40;;;;;;;;;;5084626;28;20041;-60
2022/05/01 05:31:46;;;;;;;25.85;19.65;;;;;;;;;;5085706;28;20044;-60
2022/05/01 05:34:12;;;;;;;25.20;19.80;;;;;;;;;;5085806;28;20044;-61
2022/05/01 05:36:38;;;;;;;27.08;20.08;;;;;;;;;;5085508;28;20138;-61
2022/05/01 05:39:04;;;;;;;22.92;16.70;;;;;;;;;;5085702;28;20044;-61
2022/05/01 05:41:30;;;;;;;23.42;17.92;;;;;;;;;;5085310;28;20131;-60
2022/05/01 05:43:57;;;;;;;22.33;16.42;;;;;;;;;;5085426;28;20091;-61
2022/05/01 05:46:23;;;;;;;19.15;15.90;;;;;;;;;;5084847;28;20059;-60
2022/05/01 05:48:49;;;;;;;20.70;16.60;;;;;;;;;;5085359;28;20092;-60
2022/05/01 05:51:15;;;;;;;23.63;17.58;;;;;;;;;;5085298;28;20045;-61
2022/05/01 05:53:41;;;;;;;19.50;15.93;;;;;;;;;;5085523;28;20098;-61
2022/05/01 05:56:09;;;;;;;22.15;16.67;;;;;;;;;;5085294;28;20096;-61
2022/05/01 05:58:35;;;;;;;21.88;14.35;;;;;;;;;;5085367;28;20055;-61
2022/05/01 06:01:01;;;;;;;19.42;13.80;;;;;;;;;;5083858;28;20048;-60
2022/05/01 06:03:27;;;;;;;17.45;13.50;;;;;;;;;;5085083;28;20040;-61
2022/05/01 06:05:53;;;;;;;18.10;13.77;;;;;;;;;;5084898;28;20044;-60
2022/05/01 06:08:19;;;;;;;15.70;12.57;;;;;;;;;;5085072;28;20153;-60
2022/05/01 06:10:45;;;;;;;17.45;13.43;;;;;;;;;;5085057;28;20044;-61
2022/05/01 06:13:11;;;;;;;16.70;13.30;;;;;;;;;;5085102;28;20048;-61
2022/05/01 06:15:38;;;;;;;15.85;12.05;;;;;;;;;;5083635;28;20100;-61
2022/05/01 06:18:04;;;;;;;15.18;11.27;;;;;;;;;;5084890;28;20044;-61
2022/05/01 06:20:30;;;;;;;18.17;12.00;;;;;;;;;;5084906;28;20044;-61
2022/05/01 06:22:56;;;;;;;12.48;10.98;;;;;;;;;;5083826;28;20048;-60
2022/05/01 06:25:23;;;;;;;17.42;11.40;;;;;;;;;;5084926;28;20044;-60
2022/05/01 06:27:49;;;;;;;16.05;12.75;;;;;;;;;;5084861;28;20044;-61
2022/05/01 06:30:15;;;;;;;16.42;10.93;;;;;;;;;;5084815;28;20080;-62
2022/05/01 06:32:43;;;;;;;13.55;10.93;;;;;;;;;;5083455;28;20037;-60
2022/05/01 06:35:09;;;;;;;;;;;;;;;;;;5085204;28;20056;-60
2022/05/01 06:37:36;;;;;;;13.23;9.80;;;;;;;;;;5084928;28;19927;-62
2022/05/01 06:40:03;;;;;;;12.20;9.40;;;;;;;;;;5084728;28;20061;-62
2022/05/01 06:42:30;;;;;;;14.85;11.10;;;;;;;;;;5084832;28;20108;-61
2022/05/01 06:44:56;;;;;;;11.75;8.57;;;;;;;;;;5084559;28;20055;-61
2022/05/01 06:47:22;;;;;;;11.52;9.93;;;;;;;;;;5084588;28;20052;-62
2022/05/01 06:49:48;;;;;;;10.77;8.27;;;;;;;;;;5084504;28;20150;-62
2022/05/01 06:52:18;;;;;;;11.02;6.82;;;;;;;;;;5084571;28;20105;-61
2022/05/01 06:54:44;;;;;;;9.10;6.47;;;;;;;;;;5084507;28;20044;-61
2022/05/01 06:57:10;;;;;;;8.85;7.22;;;;;;;;;;5086026;28;20115;-61
2022/05/01 06:59:36;;;;;;;12.55;7.05;;;;;;;;;;5088622;28;20068;-61
2022/05/01 07:02:03;;;;;;;10.50;7.50;;;;;;;;;;5085062;28;20616;-62
2022/05/01 07:04:29;;;;;;;8.63;7.40;;;;;;;;;;5088027;28;20072;-61
2022/05/01 07:06:55;;;;;;;9.13;6.85;;;;;;;;;;5088196;28;20132;-62
2022/05/01 07:09:21;;;;;;;9.50;6.68;;;;;;;;;;5088419;28;20040;-61
2022/05/01 07:11:47;;;;;;;9.82;6.38;;;;;;;;;;5088709;28;20111;-61
2022/05/01 07:14:13;;;;;;;7.43;4.47;;;;;;;;;;5088502;28;20047;-62
2022/05/01 07:16:39;;;;;;;7.65;4.82;;;;;;;;;;5087056;28;20127;-60
2022/05/01 07:19:06;;;;;;;8.90;6.13;;;;;;;;;;5088115;28;20051;-62
2022/05/01 07:21:32;;;;;;;11.52;6.85;;;;;;;;;;5087272;28;20048;-62
2022/05/01 07:23:58;;;;;;;8.75;5.80;;;;;;;;;;5088416;28;20045;-61
2022/05/01 07:26:26;;;;;;;8.10;5.20;;;;;;;;;;5088209;28;20091;-61
2022/05/01 07:28:52;;;;;;;;;;;;;;;;;;5088756;28;20058;-61
2022/05/01 07:31:18;;;;;;;7.45;4.50;;;;;;;;;;5088221;28;20005;-62
2022/05/01 07:33:44;;;;;;;5.95;4.32;;;;;;;;;;5087982;28;20054;-61
2022/05/01 07:36:11;;;;;;;4.55;4.00;;;;;;;;;;5086898;28;20040;-61
2022/05/01 07:38:37;;;;;;;4.90;4.07;;;;;;;;;;5088039;28;20075;-61
2022/05/01 07:41:03;;;;;;;6.25;4.80;;;;;;;;;;5086458;28;20074;-62
2022/05/01 07:43:29;;;;;;;6.75;5.30;;;;;;;;;;5086560;28;20048;-62
2022/05/01 07:45:56;;;;;;;9.27;5.55;;;;;;;;;;5087587;28;20080;-63
2022/05/01 07:48:22;;;;;;;7.88;4.45;;;;;;;;;;5087736;28;20044;-63
2022/05/01 07:50:48;;;;;;;8.45;5.13;;;;;;;;;;5087978;28;20052;-62
2022/05/01 07:53:16;;;;;;;6.20;4.78;;;;;;;;;;5087559;28;20059;-62
2022/05/01 07:55:42;;;;;;;7.38;4.78;;;;;;;;;;5087886;28;20048;-63
2022/05/01 07:58:08;;;;;;;7.82;4.20;;;;;;;;;;5087720;28;20045;-62
2022/05/01 08:00:34;;;;;;;8.68;4.70;;;;;;;;;;5087419;28;20090;-61
2022/05/01 08:05:45;;;;;;;5.63;4.22;;;;;;;;;;5087514;28;20093;-61
2022/05/01 08:08:12;;;;;;;5.35;4.07;;;;;;;;;;5086997;28;20136;-61
2022/05/01 08:10:38;;;;;;;10.48;4.22;;;;;;;;;;5085878;28;20095;-61
2022/05/01 08:13:04;;;;;;;5.30;3.35;;;;;;;;;;5087416;28;20055;-62
2022/05/01 08:15:30;;;;;;;4.28;3.00;;;;;;;;;;5086778;28;20619;-61
2022/05/01 08:21:05;;;;;;;5.75;3.60;;;;;;;;;;5086924;28;20048;-61
2022/05/01 08:23:28;;;;;;;5.35;3.60;;;;;;;;;;5087058;28;20051;-61
2022/05/01 08:25:54;;;;;;;4.05;3.13;;;;;;;;;;5085786;28;20059;-61
2022/05/01 08:28:20;;;;;;;7.57;3.88;;;;;;;;;;5085537;28;20052;-61
2022/05/01 08:30:47;;;;;;;7.60;4.25;;;;;;;;;;5085685;28;20048;-61
2022/05/01 08:33:13;;;;;;;4.88;3.80;;;;;;;;;;5086668;28;20420;-62
2022/05/01 08:35:39;;;;;;;5.75;3.80;;;;;;;;;;5084787;28;20075;-62
2022/05/01 08:38:08;;;;;;;5.82;4.60;;;;;;;;;;5085032;28;20534;-61
2022/05/01 08:40:34;;;;;;;8.02;3.90;;;;;;;;;;5086146;28;20056;-61
2022/05/01 08:43:01;;;;;;;6.25;4.07;;;;;;;;;;5085398;28;20056;-62
2022/05/01 08:45:36;;;;;;;5.10;3.97;;;;;;;;;;5085383;28;20040;-61
2022/05/01 08:48:09;;;;;;;5.85;3.90;;;;;;;;;;5085500;28;20052;-61
2022/05/01 08:50:35;;;;;;;5.72;4.10;;;;;;;;;;5085514;28;20060;-61
2022/05/01 08:53:02;;;;;;;10.38;3.92;;;;;;;;;;5086403;28;20128;-61
2022/05/01 08:55:28;;;;;;;;;;;;;;;;;;5087181;28;20045;-61
2022/05/01 08:57:55;;;;;;;5.38;3.70;;;;;;;;;;5085010;28;19943;-61
2022/05/01 09:00:21;;;;;;;5.22;4.00;;;;;;;;;;5084843;28;20048;-61
2022/05/01 09:02:48;;;;;;;6.15;3.72;;;;;;;;;;5086330;28;20045;-61
2022/05/01 09:05:14;;;;;;;5.97;4.05;;;;;;;;;;5086391;28;20687;-61
2022/05/01 09:07:40;;;;;;;4.93;3.70;;;;;;;;;;5086221;28;20048;-61
2022/05/01 09:10:08;;;;;;;5.10;3.38;;;;;;;;;;5086320;28;20096;-61
2022/05/01 09:12:51;;;;;;;5.72;3.60;;;;;;;;;;5086255;28;20044;-61
2022/05/01 09:15:35;;;;;;;6.00;4.07;;;;;;;;;;5085873;28;20068;-61
2022/05/01 09:18:06;;;;;;;7.43;4.25;;;;;;;;;;5085910;28;20040;-61
2022/05/01 09:20:33;;;;;;;4.72;3.70;;;;;;;;;;5085037;28;20063;-61
2022/05/01 09:22:59;;;;;;;9.98;6.53;;;;;;;;;;5086040;28;20067;-61
2022/05/01 09:25:27;;;;;;;9.10;4.43;;;;;;;;;;5085698;28;20050;-61
2022/05/01 09:27:57;;;;;;;5.55;4.35;;;;;;;;;;5085954;28;20051;-61
2022/05/01 09:30:34;;;;;;;4.82;3.58;;;;;;;;;;5085623;28;20075;-61
2022/05/01 09:33:01;;;;;;;4.93;4.10;;;;;;;;;;5085539;28;20071;-61
2022/05/01 09:35:29;;;;;;;;;;;;;;;;;;5086225;28;20123;-61
2022/05/01 09:38:15;;;;;;;6.40;3.42;;;;;;;;;;5085565;28;19967;-61
2022/05/01 09:40:41;;;;;;;6.47;3.50;;;;;;;;;;5085207;28;20056;-61
2022/05/01 09:43:08;;;;;;;4.43;3.63;;;;;;;;;;5085518;28;20082;-61
2022/05/01 09:45:34;;;;;;;6.43;3.58;;;;;;;;;;5085299;28;20071;-61
2022/05/01 09:48:00;;;;;;;5.90;3.58;;;;;;;;;;5085553;28;20063;-61
2022/05/01 09:50:40;;;;;;;4.22;3.40;;;;;;;;;;5085518;28;20040;-61
2022/05/01 09:53:06;;;;;;;7.28;3.90;;;;;;;;;;5085199;28;20096;-61
2022/05/01 09:55:32;;;;;;;6.70;3.58;;;;;;;;;;5085288;28;20044;-61
2022/05/01 09:58:02;;;;;;;5.60;4.07;;;;;;;;;;5085188;28;20048;-61
2022/05/01 10:00:40;;;;;;;6.43;3.20;;;;;;;;;;5084648;28;20048;-62
2022/05/01 10:03:22;;;;;;;5.03;3.90;;;;;;;;;;5085093;28;20048;-61
2022/05/01 10:05:49;;;;;;;6.03;3.85;;;;;;;;;;5085242;28;20064;-61
2022/05/01 10:08:16;;;;;;;7.10;3.50;;;;;;;;;;5085017;28;20036;-61
2022/05/01 10:10:44;;;;;;;4.60;3.45;;;;;;;;;;5085040;28;20055;-61
2022/05/01 10:13:11;;;;;;;5.82;4.00;;;;;;;;;;5085155;28;20036;-61
2022/05/01 10:15:37;;;;;;;5.07;3.70;;;;;;;;;;5084931;28;20059;-61
2022/05/01 10:18:04;;;;;;;4.25;3.17;;;;;;;;;;5085044;28;20450;-61
2022/05/01 10:20:30;;;;;;;9.13;3.58;;;;;;;;;;5084903;28;20044;-61
2022/05/01 10:22:56;;;;;;;5.95;3.33;;;;;;;;;;5083634;28;20112;-61
2022/05/01 10:25:22;;;;;;;7.13;3.25;;;;;;;;;;5085076;28;20060;-61
2022/05/01 10:27:57;;;;;;;5.78;3.70;;;;;;;;;;5085028;28;20100;-60
2022/05/01 10:33:37;;;;;;;5.13;3.30;;;;;;;;;;5084249;28;20566;-61
2022/05/01 10:36:22;;;;;;;4.82;3.67;;;;;;;;;;5084965;28;20056;-61
2022/05/01 10:38:54;;;;;;;5.28;3.45;;;;;;;;;;5084858;28;20056;-62
2022/05/01 10:41:20;;;;;;;6.68;3.00;;;;;;;;;;5083218;28;20057;-62
2022/05/01 10:43:54;;;;;;;5.55;3.33;;;;;;;;;;5084651;28;20411;-61
2022/05/01 10:46:20;;;;;;;4.97;3.17;;;;;;;;;;5084547;28;20059;-61
2022/05/01 10:48:47;;;;;;;4.68;3.28;;;;;;;;;;5084625;28;20609;-61
2022/05/01 10:51:34;;;;;;;7.20;3.03;;;;;;;;;;5084737;28;20041;-62
2022/05/01 10:54:13;;;;;;;4.78;2.85;;;;;;;;;;5080748;28;20053;-62
2022/05/01 10:56:40;;;;;;;5.68;3.28;;;;;;;;;;5084553;28;20056;-61
2022/05/01 10:59:25;;;;;;;5.27;3.60;;;;;;;;;;5083338;28;20079;-61
2022/05/01 11:01:55;;;;;;;3.83;3.00;;;;;;;;;;5083161;28;20047;-61
2022/05/01 11:04:22;;;;;;;3.67;2.85;;;;;;;;;;5084332;28;20147;-62
2022/05/01 11:06:51;;;;;;;3.88;2.88;;;;;;;;;;5084322;28;20040;-61
2022/05/01 11:09:22;;;;;;;5.90;3.40;;;;;;;;;;5084445;28;20036;-62
2022/05/01 11:11:53;;;;;;;4.90;3.35;;;;;;;;;;5084595;28;20150;-63
2022/05/01 11:14:33;;;;;;;5.63;3.95;;;;;;;;;;5084369;28;20122;-61
2022/05/01 11:16:59;;;;;;;7.55;3.75;;;;;;;;;;5084427;28;20386;-61
2022/05/01 11:19:30;;;;;;;5.53;3.42;;;;;;;;;;5084288;28;20126;-61
2022/05/01 11:21:56;;;;;;;4.03;2.50;;;;;;;;;;5084525;28;20419;-61
2022/05/01 11:24:42;;;;;;;5.35;3.20;;;;;;;;;;5084271;28;20062;-61
2022/05/01 11:27:16;;;;;;;4.15;3.25;;;;;;;;;;5084034;28;20048;-61
2022/05/01 11:30:22;;;;;;;5.32;3.60;;;;;;;;;;5084026;28;20068;-61
2022/05/01 11:32:51;;;;;;;5.00;3.10;;;;;;;;;;5061223;28;20524;-62
2022/05/01 11:35:19;;;;;;;5.03;2.97;;;;;;;;;;5061523;28;20109;-61
2022/05/01 11:38:08;;;;;;;4.57;3.20;;;;;;;;;;5061679;28;20590;-61
2022/05/01 11:40:34;;;;;;;5.78;3.08;;;;;;;;;;5051581;28;20049;-61
2022/05/01 11:43:17;;;;;;;5.97;3.38;;;;;;;;;;5061467;28;20437;-61
2022/05/01 11:45:45;;;;;;;4.53;3.20;;;;;;;;;;5081982;28;20131;-61
2022/05/01 11:48:12;;;;;;;4.10;3.30;;;;;;;;;;5065299;28;20049;-62
2022/05/01 11:50:40;;;;;;;3.35;2.85;;;;;;;;;;5065122;28;20103;-61
2022/05/01 11:53:09;;;;;;;;;;;;;;;;;;5065663;28;20123;-62
2022/05/01 12:04:02;;;;;;;6.38;3.38;;;;;;;;;;5064712;28;20096;-61
2022/05/01 12:06:29;;;;;;;5.57;3.63;;;;;;;;;;5064912;28;20052;-62
2022/05/01 12:08:55;;;;;;;3.72;2.92;;;;;;;;;;5082132;28;20049;-62
2022/05/01 12:11:28;;;;;;;3.67;3.22;;;;;;;;;;5085895;28;20070;-62
2022/05/01 12:14:04;;;;;;;5.13;3.80;;;;;;;;;;5085937;28;20217;-62
2022/05/01 12:16:30;;;;;;;5.78;3.58;;;;;;;;;;5087287;28;20079;-62
2022/05/01 12:18:56;;;;;;;4.85;3.45;;;;;;;;;;5087061;28;20044;-62
2022/05/01 12:21:29;;;;;;;4.28;3.50;;;;;;;;;;5087005;28;20505;-61
2022/05/01 12:24:01;;;;;;;5.28;3.40;;;;;;;;;;5085650;28;20056;-61
2022/05/01 12:26:27;;;;;;;4.47;3.17;;;;;;;;;;5086962;28;20074;-61
2022/05/01 12:28:54;;;;;;;3.65;3.20;;;;;;;;;;5087276;28;20105;-61
2022/05/01 12:31:20;;;;;;;10.95;4.15;;;;;;;;;;5086656;28;20052;-62
2022/05/01 12:33:52;;;;;;;5.28;3.35;;;;;;;;;;5086680;28;20075;-61
2022/05/01 12:36:25;;;;;;;5.60;3.63;;;;;;;;;;5086794;28;20052;-61
2022/05/01 12:39:05;;;;;;;5.22;3.30;;;;;;;;;;5086816;28;20052;-61
2022/05/01 12:44:16;;;;;;;3.88;3.20;;;;;;;;;;5086658;28;20048;-63
2022/05/01 12:46:52;;;;;;;6.68;3.30;;;;;;;;;;5086767;28;20072;-62
2022/05/01 12:49:28;;;;;;;4.07;3.22;;;;;;;;;;5086495;28;20519;-62
2022/05/01 12:51:54;;;;;;;3.95;2.72;;;;;;;;;;5086815;28;20075;-62
2022/05/01 12:54:20;;;;;;;3.25;2.90;;;;;;;;;;5086263;28;20087;-61
2022/05/01 12:56:47;;;;;;;4.18;2.90;;;;;;;;;;5086517;28;20047;-62
2022/05/01 12:59:30;;;;;;;4.43;2.80;;;;;;;;;;5086400;28;20125;-62
2022/05/01 13:01:57;;;;;;;4.55;3.45;;;;;;;;;;5086273;28;20056;-62
2022/05/01 13:04:25;;;;;;;4.15;2.58;;;;;;;;;;5086404;28;20047;-61
2022/05/01 13:06:51;;;;;;;3.38;2.78;;;;;;;;;;5086244;28;20052;-61
2022/05/01 13:09:17;;;;;;;4.00;3.35;;;;;;;;;;5086151;28;20058;-61
2022/05/01 13:12:00;;;;;;;4.57;3.13;;;;;;;;;;5086043;28;20057;-61
2022/05/01 13:14:32;;;;;;;2.72;2.45;;;;;;;;;;5085848;28;20051;-61
2022/05/01 13:17:07;;;;;;;6.20;2.72;;;;;;;;;;5086063;28;20043;-60
2022/05/01 13:19:33;;;;;;;8.45;3.30;;;;;;;;;;5085959;28;20052;-62
2022/05/01 13:21:59;;;;;;;3.35;3.00;;;;;;;;;;5085891;28;20048;-62
2022/05/01 13:24:32;;;;;;;4.80;2.80;;;;;;;;;;5085926;28;20045;-62
2022/05/01 13:27:01;;;;;;;3.90;2.33;;;;;;;;;;5085901;28;20559;-62
2022/05/01 13:29:28;;;;;;;4.00;2.05;;;;;;;;;;5085844;28;20045;-62
2022/05/01 13:31:54;;;;;;;3.20;2.33;;;;;;;;;;5085744;28;20053;-62
2022/05/01 13:34:21;;;;;;;3.90;2.33;;;;;;;;;;5085533;28;20343;-62
2022/05/01 13:36:48;;;;;;;5.10;2.78;;;;;;;;;;5085444;28;20102;-62
2022/05/01 13:39:14;;;;;;;;;;;;;;;;;;5085941;28;20124;-61
2022/05/01 13:47:11;;;;;;;3.58;2.50;;;;;;;;;;5085468;28;20060;-62
2022/05/01 13:49:37;;;;;;;6.00;2.45;;;;;;;;;;5085387;28;20045;-61
2022/05/01 13:52:04;;;;;;;5.97;3.10;;;;;;;;;;5085306;28;20044;-61
2022/05/01 13:54:30;;;;;;;4.20;2.72;;;;;;;;;;5085479;28;20049;-61
2022/05/01 13:56:57;;;;;;;6.13;3.08;;;;;;;;;;5085370;28;20044;-61
2022/05/01 13:59:23;;;;;;;4.85;3.00;;;;;;;;;;5085015;28;20084;-61
2022/05/01 14:01:52;;;;;;;4.45;3.05;;;;;;;;;;5085325;28;20045;-61
2022/05/01 14:04:21;;;;;;;4.32;2.78;;;;;;;;;;5085029;28;20119;-61
2022/05/01 14:06:47;;;;;;;7.53;3.15;;;;;;;;;;5084380;28;20120;-61
2022/05/01 14:09:17;;;;;;;4.40;3.08;;;;;;;;;;5085050;28;20519;-61
2022/05/01 14:11:44;;;;;;;4.65;3.17;;;;;;;;;;5085136;28;20052;-62
2022/05/01 14:14:10;;;;;;;4.47;2.80;;;;;;;;;;5085017;28;20090;-63
2022/05/01 14:16:39;;;;;;;5.75;2.45;;;;;;;;;;5084957;28;20041;-61
2022/05/01 14:19:06;;;;;;;5.50;2.70;;;;;;;;;;5084870;28;20048;-61
2022/05/01 14:21:32;;;;;;;2.80;2.50;;;;;;;;;;5084722;28;20051;-62
2022/05/01 14:24:00;;;;;;;3.58;2.70;;;;;;;;;;5084650;28;20101;-62
2022/05/01 14:26:26;;;;;;;4.18;2.80;;;;;;;;;;5084578;28;20892;-61
2022/05/01 14:28:52;;;;;;;8.23;2.58;;;;;;;;;;5084897;28;20404;-61
2022/05/01 14:31:41;;;;;;;3.25;2.58;;;;;;;;;;5084759;28;20076;-61
2022/05/01 14:34:24;;;;;;;3.47;2.50;;;;;;;;;;5081493;28;20064;-61
2022/05/01 14:36:58;;;;;;;4.57;3.00;;;;;;;;;;5084797;28;20048;-61
2022/05/01 14:39:25;;;;;;;4.55;2.50;;;;;;;;;;5084804;28;20036;-61
2022/05/01 14:41:52;;;;;;;6.32;2.55;;;;;;;;;;5084442;28;20091;-61
2022/05/01 14:44:42;;;;;;;3.03;2.42;;;;;;;;;;5084501;28;20041;-61
2022/05/01 14:47:10;;;;;;;4.32;2.88;;;;;;;;;;5084703;28;20048;-60
2022/05/01 14:49:39;;;;;;;3.50;2.67;;;;;;;;;;5083366;28;20056;-62
2022/05/01 14:52:12;;;;;;;3.88;2.83;;;;;;;;;;5083220;28;20079;-62
2022/05/01 14:54:42;;;;;;;3.03;2.58;;;;;;;;;;5084737;28;20045;-62
2022/05/01 14:57:10;;;;;;;3.05;2.65;;;;;;;;;;5084646;28;20488;-61
2022/05/01 15:08:00;;;;;;;5.93;2.90;;;;;;;;;;5084587;28;20074;-60
2022/05/01 15:10:26;;;;;;;3.78;2.50;;;;;;;;;;5084474;28;20091;-61
2022/05/01 15:12:53;;;;;;;3.15;2.47;;;;;;;;;;5084553;28;20083;-61
2022/05/01 15:15:20;;;;;;;3.28;2.33;;;;;;;;;;5084281;28;20041;-61
2022/05/01 15:17:51;;;;;;;2.95;2.17;;;;;;;;;;5083570;28;20056;-61
2022/05/01 15:20:20;;;;;;;3.08;2.13;;;;;;;;;;5088428;28;20056;-61
2022/05/01 15:22:58;;;;;;;3.97;2.80;;;;;;;;;;5088148;28;20048;-61
2022/05/01 15:25:29;;;;;;;5.40;3.30;;;;;;;;;;5088050;28;20100;-61
2022/05/01 15:28:12;;;;;;;3.50;2.70;;;;;;;;;;5088173;28;20094;-61
2022/05/01 15:30:39;;;;;;;4.22;2.60;;;;;;;;;;5087138;28;20055;-61